createdAt,value
2023-11-30T00:00:31.382Z,8.75
2023-11-30T00:02:58.331Z,7.93
2023-11-30T00:05:25.146Z,7.63
2023-11-30T00:07:53.836Z,8.20
2023-11-30T00:10:20.641Z,8.30
2023-11-30T00:12:47.541Z,8.30
2023-11-30T00:15:14.610Z,8.25
2023-11-30T00:17:41.586Z,7.93
2023-11-30T00:20:09.902Z,7.93
2023-11-30T00:22:36.713Z,8.05
2023-11-30T00:25:04.150Z,8.13
2023-11-30T00:27:31.069Z,7.68
2023-11-30T00:29:57.817Z,7.95
2023-11-30T00:32:24.581Z,7.43
2023-11-30T00:34:51.726Z,7.90
2023-11-30T00:37:18.496Z,7.78
2023-11-30T00:39:45.333Z,8.13
2023-11-30T00:42:12.308Z,7.40
2023-11-30T00:44:39.182Z,7.50
2023-11-30T00:47:06.131Z,8.23
2023-11-30T00:49:32.975Z,7.82
2023-11-30T00:51:59.800Z,7.85
2023-11-30T00:54:26.684Z,8.05
2023-11-30T00:56:53.520Z,8.02
2023-11-30T00:59:20.380Z,7.68
2023-11-30T01:01:47.353Z,7.47
2023-11-30T01:04:14.379Z,7.97
2023-11-30T01:06:41.165Z,7.60
2023-11-30T01:09:08.523Z,7.70
2023-11-30T01:11:41.138Z,8.23
2023-11-30T01:14:07.957Z,7.00
2023-11-30T01:16:34.764Z,7.43
2023-11-30T01:19:01.702Z,8.60
2023-11-30T01:21:28.625Z,9.13
2023-11-30T01:23:55.579Z,7.53
2023-11-30T01:26:23.781Z,6.10
2023-11-30T01:28:50.630Z,6.40
2023-11-30T01:31:17.512Z,5.53
2023-11-30T01:33:44.405Z,6.43
2023-11-30T01:36:11.592Z,6.32
2023-11-30T01:38:38.390Z,5.93
2023-11-30T01:41:05.374Z,6.22
2023-11-30T01:43:32.432Z,6.32
2023-11-30T01:46:03.678Z,6.53
2023-11-30T01:48:32.420Z,6.32
2023-11-30T01:51:00.451Z,7.13
2023-11-30T01:53:27.450Z,6.20
2023-11-30T01:55:56.046Z,6.50
2023-11-30T01:58:23.171Z,6.00
2023-11-30T02:00:51.416Z,6.00
2023-11-30T02:03:18.392Z,5.90
2023-11-30T02:05:48.334Z,5.72
2023-11-30T02:08:15.154Z,5.40
2023-11-30T02:10:42.262Z,6.50
2023-11-30T02:13:09.345Z,6.33
2023-11-30T02:15:36.361Z,6.00
2023-11-30T02:18:03.473Z,5.75
2023-11-30T02:20:31.212Z,6.07
2023-11-30T02:22:58.022Z,6.90
2023-11-30T02:25:25.121Z,6.22
2023-11-30T02:27:51.971Z,6.18
2023-11-30T02:30:18.973Z,6.37
2023-11-30T02:32:46.050Z,5.83
2023-11-30T02:35:13.764Z,6.87
2023-11-30T02:37:40.626Z,7.40
2023-11-30T02:40:08.018Z,7.90
2023-11-30T02:42:34.825Z,6.07
2023-11-30T02:45:01.709Z,6.73
2023-11-30T02:47:28.511Z,6.23
2023-11-30T02:49:55.285Z,6.40
2023-11-30T02:52:22.112Z,5.53
2023-11-30T02:54:49.030Z,6.13
2023-11-30T02:57:15.919Z,5.97
2023-11-30T02:59:43.754Z,5.93
2023-11-30T03:02:10.952Z,5.33
2023-11-30T03:04:37.830Z,6.57
2023-11-30T03:07:04.708Z,6.20
2023-11-30T03:09:31.981Z,5.78
2023-11-30T03:11:58.909Z,5.27
2023-11-30T03:14:25.838Z,6.35
2023-11-30T03:16:52.982Z,6.43
2023-11-30T03:19:19.873Z,5.50
2023-11-30T03:21:50.052Z,5.85
2023-11-30T03:24:18.436Z,5.80
2023-11-30T03:26:45.361Z,5.63
2023-11-30T03:29:12.290Z,4.88
2023-11-30T03:31:40.827Z,5.80
2023-11-30T03:34:08.339Z,6.10
2023-11-30T03:36:35.162Z,6.67
2023-11-30T03:39:02.037Z,6.20
2023-11-30T03:41:28.891Z,6.30
2023-11-30T03:43:56.267Z,7.00
2023-11-30T03:46:25.852Z,6.70
2023-11-30T03:48:56.288Z,6.03
2023-11-30T03:51:23.497Z,5.70
2023-11-30T03:53:50.329Z,5.47
2023-11-30T03:56:17.156Z,6.00
2023-11-30T03:58:43.940Z,6.20
2023-11-30T04:01:10.735Z,6.30
2023-11-30T04:03:37.682Z,6.73
2023-11-30T04:06:05.011Z,47.23
2023-11-30T04:08:32.169Z,84.07
2023-11-30T04:10:58.968Z,50.37
2023-11-30T04:13:26.776Z,10.67
2023-11-30T04:15:53.675Z,8.57
2023-11-30T04:18:20.605Z,6.93
2023-11-30T04:20:47.449Z,7.40
2023-11-30T04:23:14.329Z,7.87
2023-11-30T04:25:41.315Z,8.00
2023-11-30T04:28:08.228Z,7.90
2023-11-30T04:30:35.093Z,8.03
2023-11-30T04:33:02.025Z,7.30
2023-11-30T04:35:28.967Z,8.03
2023-11-30T04:37:55.824Z,7.13
2023-11-30T04:40:22.609Z,6.30
2023-11-30T04:42:49.432Z,6.87
2023-11-30T04:45:16.328Z,6.47
2023-11-30T04:47:43.168Z,4.60
2023-11-30T04:50:10.144Z,5.50
2023-11-30T04:52:36.987Z,6.03
2023-11-30T04:55:04.060Z,5.50
2023-11-30T04:57:30.895Z,5.70
2023-11-30T04:59:57.654Z,52.70
2023-11-30T05:02:24.581Z,26.30
2023-11-30T05:04:51.624Z,7.00
2023-11-30T05:07:18.504Z,7.87
2023-11-30T05:09:45.664Z,6.97
2023-11-30T05:12:12.544Z,7.30
2023-11-30T05:14:39.390Z,6.93
2023-11-30T05:17:06.248Z,7.37
2023-11-30T05:19:33.063Z,8.10
2023-11-30T05:21:59.856Z,7.97
2023-11-30T05:24:26.725Z,8.37
2023-11-30T05:26:53.888Z,9.40
2023-11-30T05:29:20.757Z,9.87
2023-11-30T05:31:47.560Z,9.50
2023-11-30T05:34:14.455Z,10.20
2023-11-30T05:36:41.303Z,12.53
2023-11-30T05:39:08.166Z,13.17
2023-11-30T05:41:35.051Z,12.77
2023-11-30T05:44:03.300Z,13.37
2023-11-30T05:46:31.626Z,13.67
2023-11-30T05:48:58.621Z,14.00
2023-11-30T05:51:27.790Z,15.77
2023-11-30T05:53:54.699Z,16.20
2023-11-30T05:56:21.669Z,15.87
2023-11-30T05:58:48.491Z,14.97
2023-11-30T06:01:15.339Z,13.27
2023-11-30T06:03:42.852Z,14.40
2023-11-30T06:06:11.249Z,15.13
2023-11-30T06:08:38.326Z,15.60
2023-11-30T06:11:05.332Z,16.77
2023-11-30T06:13:32.102Z,16.70
2023-11-30T06:15:59.096Z,17.30
2023-11-30T06:18:26.181Z,17.40
2023-11-30T06:20:53.033Z,17.00
2023-11-30T06:23:19.826Z,17.53
2023-11-30T06:25:46.617Z,16.10
2023-11-30T06:28:13.472Z,17.13
2023-11-30T06:30:40.615Z,17.13
2023-11-30T06:33:07.553Z,16.33
2023-11-30T06:35:34.462Z,18.13
2023-11-30T06:38:01.304Z,18.97
2023-11-30T06:40:28.115Z,18.83
2023-11-30T06:42:55.759Z,16.77
2023-11-30T06:45:22.586Z,16.57
2023-11-30T06:47:49.512Z,16.63
2023-11-30T06:50:16.398Z,16.27
2023-11-30T06:52:43.251Z,16.63
2023-11-30T06:55:11.183Z,16.37
2023-11-30T06:57:39.538Z,16.97
2023-11-30T07:00:12.151Z,16.57
2023-11-30T07:02:39.216Z,15.37
2023-11-30T07:05:06.933Z,15.40
2023-11-30T07:07:36.800Z,15.63
2023-11-30T07:10:05.550Z,15.87
2023-11-30T07:12:32.734Z,17.57
2023-11-30T07:14:59.805Z,16.97
2023-11-30T07:17:26.697Z,17.23
2023-11-30T07:19:54.597Z,17.27
2023-11-30T07:22:23.428Z,17.70
2023-11-30T07:24:50.348Z,17.87
2023-11-30T07:27:21.298Z,18.70
2023-11-30T07:29:48.765Z,18.70
2023-11-30T07:32:19.854Z,18.20
2023-11-30T07:34:47.380Z,19.43
2023-11-30T07:37:21.490Z,19.13
2023-11-30T07:39:48.328Z,19.47
2023-11-30T07:44:47.527Z,19.43
2023-11-30T07:47:14.361Z,20.10
2023-11-30T07:49:41.681Z,20.90
2023-11-30T07:52:08.748Z,19.50
2023-11-30T07:54:35.632Z,18.67
2023-11-30T07:57:02.452Z,20.10
2023-11-30T07:59:29.284Z,22.00
2023-11-30T08:01:56.205Z,20.13
2023-11-30T08:04:23.297Z,19.77
2023-11-30T08:06:50.338Z,18.90
2023-11-30T08:09:18.055Z,20.33
2023-11-30T08:11:45.135Z,20.70
2023-11-30T08:14:12.169Z,21.13
2023-11-30T08:16:41.822Z,20.10
2023-11-30T08:19:09.099Z,20.97
2023-11-30T08:21:41.444Z,41.00
2023-11-30T08:24:10.148Z,28.23
2023-11-30T08:26:37.736Z,37.10
2023-11-30T08:29:04.865Z,38.30
2023-11-30T08:31:31.765Z,21.87
2023-11-30T08:33:58.618Z,22.37
2023-11-30T08:36:26.262Z,48.77
2023-11-30T08:38:53.179Z,28.57
2023-11-30T08:41:21.723Z,20.07
2023-11-30T08:43:49.172Z,18.83
2023-11-30T08:46:16.037Z,18.67
2023-11-30T08:48:42.909Z,18.43
2023-11-30T08:51:11.879Z,19.40
2023-11-30T08:53:38.964Z,18.43
2023-11-30T08:56:06.975Z,18.83
2023-11-30T08:58:34.737Z,18.47
2023-11-30T09:01:01.638Z,17.77
2023-11-30T09:03:28.482Z,18.40
2023-11-30T09:05:55.338Z,18.63
2023-11-30T09:08:23.334Z,18.77
2023-11-30T09:10:50.113Z,19.27
2023-11-30T09:13:16.965Z,19.07
2023-11-30T09:15:44.156Z,18.67
2023-11-30T09:18:12.609Z,18.00
2023-11-30T09:20:39.787Z,18.85
2023-11-30T09:23:07.463Z,28.02
2023-11-30T09:25:34.514Z,18.70
2023-11-30T09:28:01.359Z,17.70
2023-11-30T09:30:28.322Z,17.08
2023-11-30T09:32:55.371Z,18.00
2023-11-30T09:35:22.527Z,17.73
2023-11-30T09:37:49.581Z,17.13
2023-11-30T09:40:16.646Z,17.17
2023-11-30T09:42:43.495Z,17.93
2023-11-30T09:45:10.722Z,17.67
2023-11-30T09:47:37.864Z,18.08
2023-11-30T09:50:05.040Z,17.17
2023-11-30T09:52:32.967Z,18.48
2023-11-30T09:55:00.568Z,16.45
2023-11-30T09:57:27.670Z,16.40
2023-11-30T09:59:56.088Z,16.20
2023-11-30T10:02:26.976Z,17.20
2023-11-30T10:04:53.930Z,15.65
2023-11-30T10:07:22.146Z,16.75
2023-11-30T10:09:49.454Z,15.75
2023-11-30T10:12:21.322Z,16.67
2023-11-30T10:14:48.646Z,15.88
2023-11-30T10:17:15.722Z,16.00
2023-11-30T10:19:43.289Z,16.38
2023-11-30T10:22:10.550Z,16.25
2023-11-30T10:24:37.415Z,16.67
2023-11-30T10:27:08.865Z,17.35
2023-11-30T10:29:42.611Z,16.00
2023-11-30T10:32:14.458Z,16.48
2023-11-30T10:34:50.216Z,17.05
2023-11-30T10:37:24.490Z,16.60
2023-11-30T10:40:01.298Z,16.48
2023-11-30T10:42:31.817Z,16.80
2023-11-30T10:45:05.561Z,16.17
2023-11-30T10:47:33.698Z,16.20
2023-11-30T10:50:01.814Z,16.80
2023-11-30T10:52:32.635Z,17.55
2023-11-30T10:55:13.226Z,15.30
2023-11-30T10:57:46.771Z,15.85
2023-11-30T11:00:15.659Z,15.18
2023-11-30T11:02:48.614Z,15.25
2023-11-30T11:05:20.041Z,14.75
2023-11-30T11:07:48.127Z,13.95
2023-11-30T11:10:36.797Z,14.93
2023-11-30T11:13:04.194Z,15.35
2023-11-30T11:15:31.574Z,14.73
2023-11-30T11:18:09.224Z,15.30
2023-11-30T11:20:38.218Z,15.75
2023-11-30T11:23:05.060Z,15.05
2023-11-30T11:25:42.308Z,14.35
2023-11-30T11:28:09.712Z,14.30
2023-11-30T11:30:43.228Z,13.45
2023-11-30T11:33:10.222Z,14.25
2023-11-30T11:35:37.152Z,14.60
2023-11-30T11:38:04.197Z,13.93
2023-11-30T11:40:31.015Z,14.32
2023-11-30T11:42:58.030Z,13.93
2023-11-30T11:45:25.013Z,14.43
2023-11-30T11:47:53.113Z,14.05
2023-11-30T11:50:20.440Z,14.30
2023-11-30T11:52:47.407Z,13.90
2023-11-30T11:55:14.947Z,13.88
2023-11-30T11:57:44.261Z,14.18
2023-11-30T12:00:15.658Z,14.40
2023-11-30T12:02:43.220Z,13.90
2023-11-30T12:05:13.017Z,14.32
2023-11-30T12:07:53.574Z,14.10
2023-11-30T12:10:31.358Z,14.80
2023-11-30T12:13:00.938Z,14.50
2023-11-30T12:15:28.908Z,13.55
2023-11-30T12:17:56.367Z,15.57
2023-11-30T12:20:23.619Z,15.60
2023-11-30T12:22:50.563Z,15.88
2023-11-30T12:25:17.997Z,15.50
2023-11-30T12:27:45.944Z,14.98
2023-11-30T12:30:13.937Z,15.15
2023-11-30T12:32:40.987Z,15.23
2023-11-30T12:35:08.821Z,15.35
2023-11-30T12:37:37.415Z,16.40
2023-11-30T12:40:05.378Z,15.20
2023-11-30T12:42:32.438Z,16.42
2023-11-30T12:44:59.687Z,16.90
2023-11-30T12:47:27.174Z,15.43
2023-11-30T12:49:54.269Z,16.90
2023-11-30T12:52:22.302Z,16.77
2023-11-30T12:54:53.155Z,16.80
2023-11-30T12:57:21.129Z,16.73
2023-11-30T12:59:50.044Z,15.77
2023-11-30T13:02:18.259Z,15.95
2023-11-30T13:04:45.560Z,15.68
2023-11-30T13:07:12.470Z,15.95
2023-11-30T13:09:39.410Z,16.00
2023-11-30T13:12:06.748Z,15.35
2023-11-30T13:14:33.613Z,15.45
2023-11-30T13:17:00.454Z,16.40
2023-11-30T13:19:27.855Z,14.15
2023-11-30T13:21:54.775Z,17.15
2023-11-30T13:24:21.649Z,17.50
2023-11-30T13:26:51.819Z,17.90
2023-11-30T13:29:18.761Z,18.00
2023-11-30T13:31:45.804Z,16.73
2023-11-30T13:34:13.088Z,16.80
2023-11-30T13:36:40.907Z,16.40
2023-11-30T13:39:09.921Z,16.42
2023-11-30T13:41:36.755Z,17.35
2023-11-30T13:44:06.233Z,16.30
2023-11-30T13:46:34.708Z,16.58
2023-11-30T13:49:01.791Z,15.90
2023-11-30T13:51:29.536Z,14.02
2023-11-30T13:53:56.397Z,13.77
2023-11-30T13:56:23.630Z,14.57
2023-11-30T13:58:50.821Z,14.60
2023-11-30T14:01:18.120Z,14.13
2023-11-30T14:03:45.717Z,13.93
2023-11-30T14:06:13.421Z,13.45
2023-11-30T14:08:41.310Z,13.88
2023-11-30T14:11:13.316Z,13.93
2023-11-30T14:13:40.445Z,12.77
2023-11-30T14:16:08.311Z,12.35
2023-11-30T14:18:35.284Z,11.30
2023-11-30T14:21:02.142Z,10.30
2023-11-30T14:23:29.135Z,10.05
2023-11-30T14:25:57.766Z,10.80
2023-11-30T14:28:26.396Z,10.63
2023-11-30T14:30:53.979Z,10.00
2023-11-30T14:33:21.296Z,9.30
2023-11-30T14:35:48.083Z,10.57
2023-11-30T14:38:14.791Z,11.30
2023-11-30T14:40:41.893Z,12.93
2023-11-30T14:43:08.513Z,11.10
2023-11-30T14:45:35.292Z,13.05
2023-11-30T14:48:02.218Z,11.55
2023-11-30T14:50:29.106Z,12.30
2023-11-30T14:52:55.750Z,13.02
2023-11-30T14:55:22.488Z,12.77
2023-11-30T14:57:49.191Z,13.43
2023-11-30T15:00:18.578Z,12.45
2023-11-30T15:02:45.453Z,11.98
2023-11-30T15:05:15.022Z,12.20
2023-11-30T15:07:42.624Z,11.57
2023-11-30T15:10:11.988Z,12.43
2023-11-30T15:12:39.330Z,13.10
2023-11-30T15:15:13.636Z,14.13
2023-11-30T15:17:42.482Z,52.22
2023-11-30T15:20:11.079Z,40.10
2023-11-30T15:22:37.921Z,34.50
2023-11-30T15:25:07.817Z,20.30
2023-11-30T15:27:35.839Z,15.07
2023-11-30T15:30:03.613Z,12.98
2023-11-30T15:32:30.251Z,12.52
2023-11-30T15:34:56.980Z,12.18
2023-11-30T15:37:23.941Z,11.85
2023-11-30T15:39:50.736Z,12.57
2023-11-30T15:42:17.428Z,12.60
2023-11-30T15:44:44.161Z,11.90
2023-11-30T15:47:10.915Z,12.60
2023-11-30T15:49:37.587Z,12.50
2023-11-30T15:52:04.743Z,12.63
2023-11-30T15:54:31.463Z,12.73
2023-11-30T15:56:58.250Z,12.57
2023-11-30T15:59:25.226Z,13.30
2023-11-30T16:01:52.395Z,13.30
2023-11-30T16:04:19.173Z,12.75
2023-11-30T16:06:47.589Z,12.85
2023-11-30T16:09:14.320Z,12.98
2023-11-30T16:11:41.051Z,13.75
2023-11-30T16:14:07.670Z,12.88
2023-11-30T16:16:35.021Z,13.65
2023-11-30T16:19:01.830Z,15.13
2023-11-30T16:21:28.840Z,15.43
2023-11-30T16:23:56.581Z,15.85
2023-11-30T16:26:25.928Z,15.60
2023-11-30T16:28:54.526Z,15.55
2023-11-30T16:31:21.180Z,15.10
2023-11-30T16:33:50.387Z,15.43
2023-11-30T16:36:17.126Z,15.75
2023-11-30T16:38:43.822Z,15.75
2023-11-30T16:41:10.459Z,15.38
2023-11-30T16:43:38.115Z,15.38
2023-11-30T16:46:05.660Z,17.10
2023-11-30T16:48:32.554Z,16.55
2023-11-30T16:51:00.220Z,16.58
2023-11-30T16:53:28.941Z,28.30
2023-11-30T16:55:56.483Z,67.00
2023-11-30T16:58:23.302Z,79.25
2023-11-30T17:00:50.326Z,23.60
2023-11-30T17:03:17.266Z,18.85
2023-11-30T17:05:44.130Z,17.38
2023-11-30T17:08:10.806Z,17.05
2023-11-30T17:10:37.459Z,17.95
2023-11-30T17:13:05.538Z,17.00
2023-11-30T17:15:33.079Z,16.60
2023-11-30T17:17:59.809Z,15.77
2023-11-30T17:20:26.519Z,15.05
2023-11-30T17:22:53.308Z,260.08
2023-11-30T17:25:21.223Z,302.40
2023-11-30T17:27:48.076Z,456.13
2023-11-30T17:30:15.802Z,680.60
2023-11-30T17:32:42.707Z,301.50
2023-11-30T17:35:09.912Z,58.75
2023-11-30T17:37:36.844Z,31.77
2023-11-30T17:40:04.067Z,15.82
2023-11-30T17:42:30.735Z,16.20
2023-11-30T17:44:57.472Z,16.35
2023-11-30T17:47:24.362Z,14.48
2023-11-30T17:49:51.253Z,15.35
2023-11-30T17:52:18.099Z,14.30
2023-11-30T17:54:44.824Z,15.15
2023-11-30T17:57:12.723Z,16.23
2023-11-30T17:59:39.665Z,14.98
2023-11-30T18:02:07.081Z,15.48
2023-11-30T18:04:34.098Z,15.57
2023-11-30T18:07:02.582Z,15.25
2023-11-30T18:09:29.474Z,15.48
2023-11-30T18:11:56.407Z,15.95
2023-11-30T18:14:29.074Z,15.20
2023-11-30T18:16:56.181Z,14.40
2023-11-30T18:19:22.973Z,16.08
2023-11-30T18:21:49.812Z,15.20
2023-11-30T18:24:16.663Z,14.95
2023-11-30T18:26:43.512Z,15.00
2023-11-30T18:29:11.110Z,15.95
2023-11-30T18:31:38.641Z,15.55
2023-11-30T18:34:05.589Z,15.65
2023-11-30T18:36:32.583Z,15.35
2023-11-30T18:38:59.498Z,152.93
2023-11-30T18:41:26.694Z,170.40
2023-11-30T18:43:53.530Z,683.72
2023-11-30T18:46:20.461Z,166.80
2023-11-30T18:48:47.719Z,89.40
2023-11-30T18:51:14.798Z,53.08
2023-11-30T18:53:42.117Z,46.20
2023-11-30T18:56:09.285Z,27.63
2023-11-30T18:58:36.132Z,17.98
2023-11-30T19:01:03.103Z,16.75
2023-11-30T19:03:30.195Z,16.77
2023-11-30T19:05:57.703Z,16.35
2023-11-30T19:08:24.942Z,16.88
2023-11-30T19:10:53.031Z,16.98
2023-11-30T19:13:19.861Z,16.88
2023-11-30T19:15:46.942Z,17.45
2023-11-30T19:18:14.282Z,17.00
2023-11-30T19:20:41.406Z,17.55
2023-11-30T19:23:08.248Z,37.47
2023-11-30T19:25:35.539Z,135.32
2023-11-30T19:28:02.559Z,38.33
2023-11-30T19:30:29.823Z,26.40
2023-11-30T19:32:56.792Z,19.17
2023-11-30T19:35:23.604Z,18.27
2023-11-30T19:37:50.431Z,17.58
2023-11-30T19:40:17.356Z,17.88
2023-11-30T19:42:44.203Z,17.70
2023-11-30T19:45:11.998Z,17.40
2023-11-30T19:47:38.937Z,16.95
2023-11-30T19:50:06.479Z,17.40
2023-11-30T19:52:34.500Z,17.98
2023-11-30T19:55:02.809Z,17.08
2023-11-30T19:57:31.925Z,16.55
2023-11-30T19:59:58.953Z,18.05
2023-11-30T20:02:25.921Z,19.00
2023-11-30T20:04:53.258Z,20.33
2023-11-30T20:07:20.078Z,20.10
2023-11-30T20:09:46.858Z,20.92
2023-11-30T20:12:13.748Z,23.25
2023-11-30T20:14:42.245Z,26.55
2023-11-30T20:17:09.468Z,25.02
2023-11-30T20:19:36.444Z,22.85
2023-11-30T20:22:04.145Z,22.45
2023-11-30T20:24:35.386Z,22.83
2023-11-30T20:27:09.084Z,22.50
2023-11-30T20:29:36.170Z,21.95
2023-11-30T20:32:03.132Z,22.45
2023-11-30T20:34:30.095Z,23.23
2023-11-30T20:36:57.528Z,22.25
2023-11-30T20:39:26.155Z,21.73
2023-11-30T20:41:53.293Z,24.40
2023-11-30T20:44:20.844Z,23.85
2023-11-30T20:46:48.628Z,47.33
2023-11-30T20:49:15.729Z,29.08
2023-11-30T20:51:44.122Z,25.33
2023-11-30T20:54:11.416Z,113.15
2023-11-30T20:56:38.510Z,73.65
2023-11-30T20:59:06.162Z,43.55
2023-11-30T21:01:34.206Z,107.88
2023-11-30T21:04:01.702Z,263.00
2023-11-30T21:06:29.193Z,149.32
2023-11-30T21:08:56.391Z,28.88
2023-11-30T21:11:23.304Z,27.30
2023-11-30T21:13:50.826Z,26.15
2023-11-30T21:16:22.536Z,23.83
2023-11-30T21:18:52.077Z,59.85
2023-11-30T21:21:19.657Z,25.95
2023-11-30T21:23:46.589Z,24.33
2023-11-30T21:26:13.486Z,36.70
2023-11-30T21:28:40.968Z,233.60
2023-11-30T21:31:08.201Z,283.42
2023-11-30T21:33:35.480Z,262.38
2023-11-30T21:36:02.677Z,139.63
2023-11-30T21:38:29.627Z,41.92
2023-11-30T21:40:57.624Z,23.90
2023-11-30T21:43:24.905Z,20.80
2023-11-30T21:45:53.020Z,21.05
2023-11-30T21:48:20.822Z,19.95
2023-11-30T21:50:47.778Z,19.35
2023-11-30T21:53:15.041Z,20.17
2023-11-30T21:55:42.210Z,19.42
2023-11-30T21:58:12.211Z,19.08
2023-11-30T22:00:40.100Z,19.97
2023-11-30T22:03:07.186Z,19.70
2023-11-30T22:05:36.868Z,19.08
2023-11-30T22:08:05.270Z,19.73
2023-11-30T22:10:32.166Z,19.60
2023-11-30T22:13:00.096Z,18.63
2023-11-30T22:15:27.568Z,20.48
2023-11-30T22:17:54.646Z,83.40
2023-11-30T22:20:22.803Z,46.45
2023-11-30T22:22:49.732Z,47.78
2023-11-30T22:25:16.601Z,39.97
2023-11-30T22:27:44.074Z,36.20
2023-11-30T22:30:15.042Z,21.52
2023-11-30T22:32:42.527Z,19.35
2023-11-30T22:35:10.350Z,18.38
2023-11-30T22:37:37.757Z,19.90
2023-11-30T22:40:06.086Z,19.75
2023-11-30T22:42:36.406Z,21.10
2023-11-30T22:45:04.893Z,20.80
2023-11-30T22:47:32.559Z,23.20
2023-11-30T22:50:00.190Z,21.63
2023-11-30T22:52:27.648Z,20.83
2023-11-30T22:54:54.958Z,21.13
2023-11-30T22:57:23.396Z,22.73
2023-11-30T22:59:51.176Z,21.10
2023-11-30T23:02:20.044Z,22.30
2023-11-30T23:04:47.358Z,22.27
2023-11-30T23:07:14.410Z,21.80
2023-11-30T23:09:41.343Z,23.60
2023-11-30T23:12:08.759Z,21.98
2023-11-30T23:14:35.793Z,21.83
2023-11-30T23:17:02.838Z,23.33
2023-11-30T23:19:32.723Z,22.15
2023-11-30T23:22:00.287Z,22.63
2023-11-30T23:24:31.893Z,23.08
2023-11-30T23:26:59.444Z,22.33
2023-11-30T23:29:26.442Z,21.15
2023-11-30T23:31:53.818Z,22.23
2023-11-30T23:34:20.851Z,21.52
2023-11-30T23:36:48.119Z,22.30
2023-11-30T23:39:15.375Z,23.65
2023-11-30T23:41:42.346Z,23.47
2023-11-30T23:44:09.618Z,23.35
2023-11-30T23:46:46.068Z,23.02
2023-11-30T23:49:19.419Z,22.77
2023-11-30T23:51:47.209Z,23.35
2023-11-30T23:54:14.238Z,22.88
2023-11-30T23:56:41.128Z,23.35
2023-11-30T23:59:08.983Z,23.48
